TRA6B EGLL-EDDL
Flight info
| Callsign | TRA6B |
|---|---|
| Flight time | 0h 59m |
| Altitude | 33000 |
| Route | BPK Q295 BRAIN M197 REDFA DCT TACHA DCT PAM P62 PISAP PISAP1A |
| Aircraft | A320/M-SDE3FGHIRWY/LB1 |
Departure
| Time | 2026-05-07 13:06 |
|---|---|
| Airport | London Heathrow Airport (EGLL) |
Arrival
| Time | 2026-05-07 14:05 |
|---|---|
| Airport | Düsseldorf Airport (EDDL) |
| Time | Latitude | Longitude | Altitude | Speed | Heading |
|---|---|---|---|---|---|
| 2026-05-07 13:04 | 51.46480 | -0.48336 | 89 ft | 0 kts | 85° |
| 2026-05-07 13:05 | 51.46480 | -0.48334 | 89 ft | 0 kts | 85° |
| 2026-05-07 13:05 | 51.46481 | -0.48320 | 87 ft | 13 kts | 85° |
| 2026-05-07 13:05 | 51.46487 | -0.47649 | 84 ft | 106 kts | 92° |
| 2026-05-07 13:05 | 51.46485 | -0.46085 | 225 ft | 161 kts | 91° |
| 2026-05-07 13:06 | 51.46497 | -0.44278 | 1286 ft | 165 kts | 89° |
| 2026-05-07 13:06 | 51.46541 | -0.42403 | 2305 ft | 168 kts | 88° |
| 2026-05-07 13:06 | 51.46612 | -0.40600 | 3210 ft | 157 kts | 86° |
| 2026-05-07 13:06 | 51.46699 | -0.39071 | 3922 ft | 149 kts | 84° |
| 2026-05-07 13:07 | 51.46838 | -0.37462 | 4642 ft | 142 kts | 81° |
| 2026-05-07 13:07 | 51.47052 | -0.35961 | 5046 ft | 153 kts | 68° |
| 2026-05-07 13:07 | 51.47773 | -0.34352 | 5021 ft | 199 kts | 41° |
| 2026-05-07 13:07 | 51.48907 | -0.32837 | 5338 ft | 224 kts | 39° |
| 2026-05-07 13:08 | 51.50163 | -0.31191 | 5835 ft | 245 kts | 39° |
| 2026-05-07 13:08 | 51.51563 | -0.29350 | 6054 ft | 272 kts | 40° |
| 2026-05-07 13:08 | 51.52804 | -0.27053 | 6022 ft | 274 kts | 60° |
| 2026-05-07 13:08 | 51.53587 | -0.24261 | 6015 ft | 275 kts | 65° |
| 2026-05-07 13:09 | 51.54644 | -0.21767 | 6006 ft | 275 kts | 45° |
| 2026-05-07 13:09 | 51.56190 | -0.19991 | 6003 ft | 275 kts | 23° |
| 2026-05-07 13:09 | 51.57989 | -0.18944 | 6006 ft | 275 kts | 20° |
| 2026-05-07 13:09 | 51.59814 | -0.17865 | 6036 ft | 278 kts | 19° |
| 2026-05-07 13:10 | 51.61489 | -0.16258 | 6826 ft | 283 kts | 46° |
| 2026-05-07 13:10 | 51.62685 | -0.13761 | 7942 ft | 282 kts | 56° |
| 2026-05-07 13:10 | 51.63825 | -0.11174 | 8970 ft | 285 kts | 56° |
| 2026-05-07 13:10 | 51.64968 | -0.08588 | 9938 ft | 289 kts | 55° |
| 2026-05-07 13:11 | 51.66085 | -0.06061 | 10522 ft | 304 kts | 55° |
| 2026-05-07 13:11 | 51.67310 | -0.03287 | 10829 ft | 327 kts | 55° |
| 2026-05-07 13:11 | 51.68204 | -0.01268 | 11020 ft | 342 kts | 55° |
| 2026-05-07 13:11 | 51.69551 | 0.01762 | 11586 ft | 352 kts | 55° |
| 2026-05-07 13:12 | 51.70993 | 0.04995 | 12345 ft | 357 kts | 55° |
| 2026-05-07 13:12 | 51.72449 | 0.08269 | 13119 ft | 362 kts | 55° |
| 2026-05-07 13:12 | 51.73941 | 0.11635 | 13939 ft | 366 kts | 55° |
| 2026-05-07 13:12 | 51.75379 | 0.14886 | 14608 ft | 370 kts | 56° |
| 2026-05-07 13:13 | 51.76700 | 0.18542 | 15275 ft | 374 kts | 66° |
| 2026-05-07 13:13 | 51.77592 | 0.22481 | 15925 ft | 378 kts | 76° |
| 2026-05-07 13:13 | 51.78078 | 0.26667 | 16573 ft | 381 kts | 83° |
| 2026-05-07 13:13 | 51.78445 | 0.30930 | 17262 ft | 385 kts | 83° |
| 2026-05-07 13:14 | 51.78791 | 0.35245 | 17949 ft | 390 kts | 84° |
| 2026-05-07 13:14 | 51.79100 | 0.39258 | 18554 ft | 394 kts | 84° |
| 2026-05-07 13:14 | 51.79436 | 0.43666 | 19182 ft | 398 kts | 84° |
| 2026-05-07 13:14 | 51.79780 | 0.48120 | 19836 ft | 402 kts | 84° |
| 2026-05-07 13:15 | 51.80131 | 0.52616 | 20495 ft | 405 kts | 84° |
| 2026-05-07 13:15 | 51.80486 | 0.57157 | 21124 ft | 409 kts | 84° |
| 2026-05-07 13:15 | 51.80842 | 0.61737 | 21722 ft | 413 kts | 84° |
| 2026-05-07 13:15 | 51.81289 | 0.66342 | 22290 ft | 417 kts | 78° |
| 2026-05-07 13:16 | 51.81988 | 0.70913 | 22855 ft | 421 kts | 77° |
| 2026-05-07 13:16 | 51.82698 | 0.75517 | 23404 ft | 424 kts | 77° |
| 2026-05-07 13:16 | 51.83414 | 0.80161 | 23896 ft | 427 kts | 77° |
| 2026-05-07 13:16 | 51.84159 | 0.84822 | 24358 ft | 430 kts | 75° |
| 2026-05-07 13:17 | 51.84981 | 0.89492 | 24808 ft | 432 kts | 74° |
| 2026-05-07 13:17 | 51.85850 | 0.94154 | 25248 ft | 435 kts | 73° |
| 2026-05-07 13:17 | 51.86739 | 0.98841 | 25696 ft | 437 kts | 73° |
| 2026-05-07 13:17 | 51.87630 | 1.03551 | 26137 ft | 439 kts | 74° |
| 2026-05-07 13:18 | 51.88514 | 1.08294 | 26580 ft | 441 kts | 74° |
| 2026-05-07 13:18 | 51.89385 | 1.13075 | 27028 ft | 443 kts | 75° |
| 2026-05-07 13:18 | 51.90247 | 1.17870 | 27475 ft | 445 kts | 75° |
| 2026-05-07 13:18 | 51.91107 | 1.22693 | 27929 ft | 447 kts | 75° |
| 2026-05-07 13:19 | 51.91969 | 1.27530 | 28355 ft | 448 kts | 75° |
| 2026-05-07 13:19 | 51.92836 | 1.32400 | 28772 ft | 450 kts | 75° |
| 2026-05-07 13:19 | 51.93703 | 1.37274 | 29196 ft | 451 kts | 75° |
| 2026-05-07 13:19 | 51.94291 | 1.40583 | 29471 ft | 453 kts | 75° |
| 2026-05-07 13:20 | 51.95160 | 1.45489 | 29881 ft | 454 kts | 75° |
| 2026-05-07 13:20 | 51.96032 | 1.50425 | 30245 ft | 455 kts | 75° |
| 2026-05-07 13:20 | 51.96898 | 1.55344 | 30680 ft | 453 kts | 75° |
| 2026-05-07 13:20 | 51.97762 | 1.60261 | 31115 ft | 452 kts | 75° |
| 2026-05-07 13:21 | 51.98618 | 1.65157 | 31551 ft | 451 kts | 75° |
| 2026-05-07 13:21 | 51.99465 | 1.70054 | 31976 ft | 451 kts | 75° |
| 2026-05-07 13:21 | 52.00269 | 1.74976 | 32415 ft | 450 kts | 76° |
| 2026-05-07 13:21 | 52.01033 | 1.79889 | 32847 ft | 449 kts | 77° |
| 2026-05-07 13:22 | 52.01778 | 1.84819 | 33066 ft | 450 kts | 77° |
| 2026-05-07 13:22 | 52.02518 | 1.89751 | 33099 ft | 449 kts | 77° |
| 2026-05-07 13:22 | 52.04004 | 1.99553 | 33102 ft | 448 kts | 76° |
| 2026-05-07 13:23 | 52.05517 | 2.09369 | 33099 ft | 448 kts | 76° |
| 2026-05-07 13:23 | 52.07017 | 2.19199 | 33111 ft | 448 kts | 77° |
| 2026-05-07 13:24 | 52.08504 | 2.29036 | 33101 ft | 448 kts | 77° |
| 2026-05-07 13:24 | 52.09984 | 2.38866 | 33100 ft | 448 kts | 77° |
| 2026-05-07 13:25 | 52.11455 | 2.48706 | 33098 ft | 448 kts | 76° |
| 2026-05-07 13:25 | 52.13158 | 2.58472 | 33098 ft | 448 kts | 73° |
| 2026-05-07 13:26 | 52.15087 | 2.68117 | 33100 ft | 449 kts | 72° |
| 2026-05-07 13:26 | 52.16999 | 2.77786 | 33104 ft | 448 kts | 73° |
| 2026-05-07 13:27 | 52.18836 | 2.87494 | 33117 ft | 448 kts | 73° |
| 2026-05-07 13:27 | 52.20629 | 2.97162 | 33109 ft | 448 kts | 73° |
| 2026-05-07 13:28 | 52.22437 | 3.06892 | 33108 ft | 448 kts | 73° |
| 2026-05-07 13:28 | 52.24226 | 3.16623 | 33107 ft | 448 kts | 73° |
| 2026-05-07 13:29 | 52.25727 | 3.26486 | 33101 ft | 448 kts | 84° |
| 2026-05-07 13:29 | 52.26249 | 3.36609 | 33100 ft | 448 kts | 86° |
| 2026-05-07 13:30 | 52.26733 | 3.46748 | 33099 ft | 448 kts | 86° |
| 2026-05-07 13:30 | 52.27223 | 3.56892 | 33102 ft | 449 kts | 86° |
| 2026-05-07 13:31 | 52.27710 | 3.67066 | 33105 ft | 449 kts | 86° |
| 2026-05-07 13:31 | 52.28176 | 3.77165 | 33101 ft | 450 kts | 86° |
| 2026-05-07 13:32 | 52.28591 | 3.86372 | 33097 ft | 451 kts | 86° |
| 2026-05-07 13:32 | 52.29052 | 3.96579 | 33099 ft | 451 kts | 86° |
| 2026-05-07 13:33 | 52.29504 | 4.06790 | 33097 ft | 451 kts | 86° |
| 2026-05-07 13:33 | 52.29938 | 4.17006 | 33087 ft | 451 kts | 86° |
| 2026-05-07 13:34 | 52.30468 | 4.29804 | 33095 ft | 452 kts | 86° |
| 2026-05-07 13:35 | 52.30889 | 4.40060 | 33075 ft | 453 kts | 86° |
| 2026-05-07 13:35 | 52.31026 | 4.43455 | 33076 ft | 453 kts | 87° |
| 2026-05-07 13:36 | 52.31328 | 4.51055 | 33072 ft | 454 kts | 87° |
| 2026-05-07 13:36 | 52.31733 | 4.61363 | 33075 ft | 454 kts | 87° |
| 2026-05-07 13:37 | 52.32011 | 4.68717 | 33076 ft | 455 kts | 87° |
| 2026-05-07 13:37 | 52.32356 | 4.77933 | 33073 ft | 455 kts | 87° |
| 2026-05-07 13:38 | 52.32731 | 4.88168 | 33079 ft | 455 kts | 87° |
| 2026-05-07 13:38 | 52.32965 | 4.94488 | 33079 ft | 455 kts | 87° |
| 2026-05-07 13:39 | 52.33094 | 4.98088 | 33071 ft | 456 kts | 87° |
| 2026-05-07 13:39 | 52.32918 | 5.08428 | 33069 ft | 455 kts | 101° |
| 2026-05-07 13:40 | 52.30926 | 5.18154 | 33062 ft | 453 kts | 116° |
| 2026-05-07 13:40 | 52.28238 | 5.27473 | 33070 ft | 454 kts | 116° |
| 2026-05-07 13:41 | 52.25559 | 5.36799 | 33073 ft | 454 kts | 116° |
| 2026-05-07 13:41 | 52.22860 | 5.46132 | 33075 ft | 455 kts | 116° |
| 2026-05-07 13:42 | 52.20151 | 5.55443 | 33060 ft | 455 kts | 116° |
| 2026-05-07 13:42 | 52.17434 | 5.64761 | 33057 ft | 455 kts | 116° |
| 2026-05-07 13:43 | 52.14710 | 5.74074 | 33056 ft | 456 kts | 116° |
| 2026-05-07 13:43 | 52.11973 | 5.83377 | 33057 ft | 456 kts | 116° |
| 2026-05-07 13:44 | 52.09234 | 5.92682 | 33059 ft | 456 kts | 116° |
| 2026-05-07 13:44 | 52.06484 | 6.01982 | 33058 ft | 456 kts | 117° |
| 2026-05-07 13:44 | 52.05019 | 6.06541 | 32931 ft | 453 kts | 124° |
| 2026-05-07 13:45 | 52.03020 | 6.10423 | 32154 ft | 449 kts | 140° |
| 2026-05-07 13:45 | 52.00455 | 6.13265 | 31291 ft | 446 kts | 155° |
| 2026-05-07 13:45 | 51.97535 | 6.14900 | 30406 ft | 444 kts | 170° |
| 2026-05-07 13:45 | 51.94478 | 6.15619 | 29352 ft | 445 kts | 174° |
| 2026-05-07 13:46 | 51.91396 | 6.16283 | 28179 ft | 448 kts | 173° |
| 2026-05-07 13:46 | 51.88299 | 6.16944 | 27206 ft | 447 kts | 173° |
| 2026-05-07 13:46 | 51.85230 | 6.17601 | 26422 ft | 442 kts | 173° |
| 2026-05-07 13:46 | 51.82197 | 6.18252 | 25652 ft | 437 kts | 173° |
| 2026-05-07 13:47 | 51.79526 | 6.18827 | 24996 ft | 433 kts | 173° |
| 2026-05-07 13:47 | 51.76551 | 6.19464 | 24280 ft | 429 kts | 173° |
| 2026-05-07 13:47 | 51.73606 | 6.20091 | 23583 ft | 425 kts | 173° |
| 2026-05-07 13:47 | 51.70700 | 6.20712 | 22759 ft | 421 kts | 173° |
| 2026-05-07 13:48 | 51.67808 | 6.21335 | 21989 ft | 416 kts | 173° |
| 2026-05-07 13:48 | 51.64949 | 6.21948 | 21239 ft | 412 kts | 173° |
| 2026-05-07 13:48 | 51.62117 | 6.22548 | 20530 ft | 409 kts | 174° |
| 2026-05-07 13:48 | 51.59305 | 6.23141 | 19883 ft | 406 kts | 174° |
| 2026-05-07 13:49 | 51.56520 | 6.23730 | 19264 ft | 403 kts | 174° |
| 2026-05-07 13:49 | 51.53699 | 6.24329 | 18665 ft | 400 kts | 174° |
| 2026-05-07 13:49 | 51.51004 | 6.24901 | 18073 ft | 397 kts | 174° |
| 2026-05-07 13:49 | 51.48278 | 6.25478 | 17439 ft | 393 kts | 174° |
| 2026-05-07 13:50 | 51.45587 | 6.26047 | 17003 ft | 385 kts | 174° |
| 2026-05-07 13:50 | 51.43004 | 6.26591 | 16855 ft | 360 kts | 174° |
| 2026-05-07 13:50 | 51.40618 | 6.27100 | 16712 ft | 332 kts | 174° |
| 2026-05-07 13:50 | 51.38382 | 6.27577 | 16285 ft | 318 kts | 174° |
| 2026-05-07 13:51 | 51.36186 | 6.28038 | 15655 ft | 312 kts | 174° |
| 2026-05-07 13:51 | 51.34052 | 6.28242 | 14645 ft | 315 kts | 188° |
| 2026-05-07 13:51 | 51.31928 | 6.27276 | 13441 ft | 323 kts | 202° |
| 2026-05-07 13:51 | 51.29825 | 6.25885 | 12465 ft | 323 kts | 204° |
| 2026-05-07 13:52 | 51.27835 | 6.24534 | 12237 ft | 301 kts | 204° |
| 2026-05-07 13:52 | 51.25940 | 6.23246 | 11699 ft | 293 kts | 204° |
| 2026-05-07 13:52 | 51.24080 | 6.21978 | 11088 ft | 289 kts | 204° |
| 2026-05-07 13:52 | 51.22246 | 6.20721 | 10451 ft | 286 kts | 204° |
| 2026-05-07 13:53 | 51.20426 | 6.19466 | 9818 ft | 283 kts | 204° |
| 2026-05-07 13:53 | 51.18630 | 6.18219 | 9144 ft | 281 kts | 204° |
| 2026-05-07 13:53 | 51.16844 | 6.16978 | 8484 ft | 279 kts | 204° |
| 2026-05-07 13:53 | 51.15943 | 6.16351 | 8161 ft | 278 kts | 204° |
| 2026-05-07 13:54 | 51.14834 | 6.15614 | 7645 ft | 267 kts | 200° |
| 2026-05-07 13:54 | 51.13058 | 6.14556 | 6832 ft | 274 kts | 203° |
| 2026-05-07 13:54 | 51.11315 | 6.13361 | 6205 ft | 272 kts | 204° |
| 2026-05-07 13:54 | 51.09562 | 6.12141 | 5555 ft | 270 kts | 202° |
| 2026-05-07 13:55 | 51.07742 | 6.11495 | 4935 ft | 268 kts | 180° |
| 2026-05-07 13:55 | 51.05934 | 6.12048 | 4327 ft | 266 kts | 155° |
| 2026-05-07 13:55 | 51.04469 | 6.13685 | 3866 ft | 256 kts | 130° |
| 2026-05-07 13:55 | 51.03564 | 6.16004 | 3721 ft | 234 kts | 108° |
| 2026-05-07 13:56 | 51.03272 | 6.18419 | 3600 ft | 214 kts | 88° |
| 2026-05-07 13:56 | 51.03488 | 6.20651 | 3430 ft | 199 kts | 69° |
| 2026-05-07 13:56 | 51.04097 | 6.22578 | 3046 ft | 192 kts | 54° |
| 2026-05-07 13:56 | 51.04844 | 6.24272 | 3483 ft | 186 kts | 52° |
| 2026-05-07 13:57 | 51.05642 | 6.26043 | 3443 ft | 196 kts | 56° |
| 2026-05-07 13:57 | 51.06368 | 6.27887 | 3435 ft | 197 kts | 57° |
| 2026-05-07 13:57 | 51.07071 | 6.29734 | 3293 ft | 195 kts | 57° |
| 2026-05-07 13:57 | 51.07775 | 6.31575 | 3091 ft | 193 kts | 57° |
| 2026-05-07 13:58 | 51.08239 | 6.32779 | 3025 ft | 194 kts | 56° |
| 2026-05-07 13:58 | 51.08906 | 6.34626 | 3004 ft | 189 kts | 65° |
| 2026-05-07 13:58 | 51.09481 | 6.36475 | 3012 ft | 184 kts | 57° |
| 2026-05-07 13:58 | 51.10193 | 6.38151 | 3016 ft | 182 kts | 52° |
| 2026-05-07 13:59 | 51.10945 | 6.39763 | 3013 ft | 181 kts | 51° |
| 2026-05-07 13:59 | 51.11709 | 6.41360 | 3003 ft | 181 kts | 51° |
| 2026-05-07 13:59 | 51.12477 | 6.42953 | 3015 ft | 181 kts | 50° |
| 2026-05-07 13:59 | 51.13242 | 6.44540 | 3001 ft | 181 kts | 51° |
| 2026-05-07 14:00 | 51.14010 | 6.46130 | 3006 ft | 181 kts | 51° |
| 2026-05-07 14:00 | 51.14779 | 6.47725 | 3017 ft | 182 kts | 51° |
| 2026-05-07 14:00 | 51.15549 | 6.49320 | 3003 ft | 181 kts | 50° |
| 2026-05-07 14:00 | 51.16317 | 6.50915 | 3023 ft | 182 kts | 50° |
| 2026-05-07 14:01 | 51.17084 | 6.52508 | 2996 ft | 181 kts | 51° |
| 2026-05-07 14:01 | 51.17850 | 6.54099 | 3009 ft | 181 kts | 51° |
| 2026-05-07 14:01 | 51.18614 | 6.55687 | 3044 ft | 181 kts | 51° |
| 2026-05-07 14:01 | 51.19380 | 6.57281 | 2939 ft | 181 kts | 50° |
| 2026-05-07 14:02 | 51.20136 | 6.58856 | 2754 ft | 175 kts | 51° |
| 2026-05-07 14:02 | 51.20859 | 6.60363 | 2528 ft | 168 kts | 51° |
| 2026-05-07 14:02 | 51.21556 | 6.61816 | 2301 ft | 161 kts | 50° |
| 2026-05-07 14:02 | 51.22222 | 6.63204 | 2090 ft | 157 kts | 51° |
| 2026-05-07 14:03 | 51.22887 | 6.64590 | 1879 ft | 157 kts | 51° |
| 2026-05-07 14:03 | 51.23555 | 6.65983 | 1661 ft | 159 kts | 50° |
| 2026-05-07 14:03 | 51.24229 | 6.67391 | 1445 ft | 160 kts | 51° |
| 2026-05-07 14:03 | 51.24905 | 6.68803 | 1230 ft | 162 kts | 50° |
| 2026-05-07 14:04 | 51.25591 | 6.70237 | 997 ft | 162 kts | 51° |
| 2026-05-07 14:04 | 51.26243 | 6.71604 | 789 ft | 147 kts | 50° |
| 2026-05-07 14:04 | 51.26836 | 6.72845 | 592 ft | 134 kts | 50° |
| 2026-05-07 14:04 | 51.27387 | 6.73999 | 410 ft | 129 kts | 51° |
| 2026-05-07 14:05 | 51.27924 | 6.75122 | 245 ft | 126 kts | 51° |
| 2026-05-07 14:05 | 51.28435 | 6.76187 | 131 ft | 108 kts | 52° |
| 2026-05-07 14:05 | 51.28806 | 6.76971 | 124 ft | 60 kts | 52° |
| 2026-05-07 14:05 | 51.28933 | 6.77229 | 127 ft | 25 kts | 52° |
| 2026-05-07 14:06 | 51.29010 | 6.77393 | 128 ft | 10 kts | 62° |
| 2026-05-07 14:06 | 51.29021 | 6.77438 | 127 ft | 0 kts | 71° |
| 2026-05-07 14:06 | 51.29018 | 6.77533 | 125 ft | 13 kts | 109° |
| 2026-05-07 14:06 | 51.28999 | 6.77580 | 127 ft | 0 kts | 128° |
| 2026-05-07 14:08 | 51.28988 | 6.77602 | 127 ft | 4 kts | 133° |
| 2026-05-07 14:08 | 51.28961 | 6.77635 | 129 ft | 6 kts | 146° |
| 2026-05-07 14:08 | 51.28909 | 6.77638 | 129 ft | 9 kts | 208° |
| 2026-05-07 14:09 | 51.28858 | 6.77553 | 127 ft | 12 kts | 232° |
| 2026-05-07 14:09 | 51.28798 | 6.77428 | 128 ft | 16 kts | 233° |
| 2026-05-07 14:09 | 51.28721 | 6.77274 | 126 ft | 19 kts | 230° |
| 2026-05-07 14:09 | 51.28630 | 6.77087 | 126 ft | 23 kts | 231° |
| 2026-05-07 14:10 | 51.28525 | 6.76853 | 128 ft | 28 kts | 232° |
| 2026-05-07 14:10 | 51.28424 | 6.76676 | 126 ft | 6 kts | 188° |
| 2026-05-07 14:10 | 51.28371 | 6.76688 | 126 ft | 8 kts | 195° |
| 2026-05-07 14:10 | 51.28331 | 6.76632 | 124 ft | 9 kts | 228° |
| 2026-05-07 14:11 | 51.28279 | 6.76527 | 127 ft | 12 kts | 232° |
| 2026-05-07 14:11 | 51.28222 | 6.76410 | 127 ft | 16 kts | 231° |
| 2026-05-07 14:11 | 51.28152 | 6.76257 | 125 ft | 19 kts | 234° |
| 2026-05-07 14:11 | 51.28088 | 6.76119 | 124 ft | 11 kts | 233° |
| 2026-05-07 14:12 | 51.28017 | 6.76050 | 127 ft | 14 kts | 186° |
| 2026-05-07 14:12 | 51.27942 | 6.76048 | 126 ft | 9 kts | 180° |
| 2026-05-07 14:12 | 51.27919 | 6.76049 | 128 ft | 0 kts | 179° |
| 2026-05-07 14:12 | 51.27909 | 6.76049 | 128 ft | 3 kts | 179° |
| 2026-05-07 14:13 | 51.27889 | 6.76049 | 129 ft | 0 kts | 179° |
| 2026-05-07 14:13 | 51.27884 | 6.76050 | 129 ft | 5 kts | 178° |
| 2026-05-07 14:13 | 51.27861 | 6.76057 | 125 ft | 1 kts | 139° |
| 2026-05-07 14:13 | 51.27854 | 6.76085 | 128 ft | 4 kts | 94° |
| 2026-05-07 14:14 | 51.27867 | 6.76129 | 126 ft | 5 kts | 63° |
| 2026-05-07 14:14 | 51.27887 | 6.76187 | 125 ft | 7 kts | 61° |
| 2026-05-07 14:14 | 51.27898 | 6.76219 | 127 ft | 1 kts | 60° |
| 2026-05-07 14:14 | 51.27906 | 6.76241 | 125 ft | 2 kts | 61° |
| 2026-05-07 14:15 | 51.27908 | 6.76247 | 125 ft | 1 kts | 62° |
| 2026-05-07 14:15 | 51.27909 | 6.76251 | 126 ft | 0 kts | 62° |